Time;durP1;ratioP1;P1;durP2;ratioP2;P2;SDS_P1;SDS_P2;PMS_P1;PMS_P2;Temp;Humidity;BMP_temperature;BMP_pressure;BME280_temperature;BME280_humidity;BME280_pressure;Samples;Min_cycle;Max_cycle;Signal;HPM_P1;HPM_P2
2023/04/29 00:01:10;;;;;;;44.43;18.20;;;5.90;99.90;;;;;;4378992;28;657487;-71
2023/04/29 00:03:57;;;;;;;67.93;23.23;;;5.80;99.90;;;;;;4391248;28;657479;-69
2023/04/29 00:06:46;;;;;;;47.70;16.93;;;5.80;99.90;;;;;;4386974;28;657985;-69
2023/04/29 00:09:33;;;;;;;57.00;17.67;;;5.80;99.90;;;;;;4369059;28;658615;-70
2023/04/29 00:12:20;;;;;;;41.70;17.97;;;5.90;99.90;;;;;;4367239;28;658049;-70
2023/04/29 00:15:08;;;;;;;50.00;17.40;;;5.90;99.90;;;;;;4390786;28;659042;-69
2023/04/29 00:17:55;;;;;;;50.40;17.53;;;5.90;99.90;;;;;;4364455;28;657389;-70
2023/04/29 00:20:43;;;;;;;101.97;30.47;;;6.00;99.90;;;;;;4387757;28;658095;-69
2023/04/29 00:23:32;;;;;;;94.43;30.67;;;6.00;99.90;;;;;;4370746;28;658694;-71
2023/04/29 00:26:19;;;;;;;55.10;19.57;;;6.00;99.90;;;;;;4388988;28;658280;-71
2023/04/29 00:29:06;;;;;;;40.47;16.27;;;6.10;99.90;;;;;;4361571;28;658284;-71
2023/04/29 00:31:53;;;;;;;29.10;12.87;;;6.20;99.90;;;;;;4393346;28;657267;-69
2023/04/29 00:34:41;;;;;;;40.93;16.03;;;6.20;99.90;;;;;;4325697;28;658487;-71
2023/04/29 00:37:28;;;;;;;38.47;13.70;;;6.20;99.90;;;;;;4348490;28;657038;-71
2023/04/29 00:40:17;;;;;;;40.63;16.63;;;6.30;99.90;;;;;;4369210;28;657964;-70
2023/04/29 00:43:04;;;;;;;39.28;14.93;;;6.30;99.90;;;;;;4388189;28;657624;-69
2023/04/29 00:45:52;;;;;;;34.60;14.67;;;6.30;99.90;;;;;;4368347;28;657755;-69
2023/04/29 00:48:40;;;;;;;28.93;13.07;;;6.30;99.90;;;;;;4382002;28;657714;-69
2023/04/29 00:51:28;;;;;;;38.40;15.77;;;6.40;99.90;;;;;;4362530;28;659264;-69
2023/04/29 00:54:15;;;;;;;42.07;15.07;;;6.40;99.90;;;;;;4377233;28;657322;-71
2023/04/29 00:57:06;;;;;;;32.93;14.07;;;6.50;99.90;;;;;;4391180;28;658388;-70
2023/04/29 00:59:53;;;;;;;39.73;16.17;;;6.50;99.90;;;;;;4363903;28;658016;-69
2023/04/29 01:02:40;;;;;;;37.55;15.70;;;6.50;99.90;;;;;;4377024;28;658976;-70
2023/04/29 01:05:27;;;;;;;37.33;13.77;;;6.50;99.90;;;;;;4385513;28;658229;-70
2023/04/29 01:08:21;;;;;;;30.30;12.90;;;6.50;99.90;;;;;;4386200;28;657479;-70
2023/04/29 01:11:09;;;;;;;40.65;14.13;;;6.60;99.90;;;;;;4368279;28;658351;-69
2023/04/29 01:13:59;;;;;;;18.00;9.37;;;6.60;99.90;;;;;;4364885;28;657563;-71
2023/04/29 01:16:51;;;;;;;27.37;12.53;;;6.70;99.90;;;;;;4366700;28;656916;-69
2023/04/29 01:19:45;;;;;;;30.23;13.33;;;6.80;99.90;;;;;;4365687;28;658364;-70
2023/04/29 01:22:32;;;;;;;27.80;11.30;;;6.80;99.90;;;;;;4363150;28;657429;-71
2023/04/29 01:25:22;;;;;;;28.80;11.03;;;6.80;99.90;;;;;;4382763;28;657656;-71
2023/04/29 01:28:14;;;;;;;34.47;15.35;;;6.80;99.90;;;;;;4388643;28;658071;-69
2023/04/29 01:31:07;;;;;;;38.97;15.33;;;6.90;99.90;;;;;;4369009;28;657880;-69
2023/04/29 01:33:59;;;;;;;25.73;11.07;;;6.90;99.90;;;;;;4367599;28;658402;-70
2023/04/29 01:36:51;;;;;;;25.93;11.90;;;6.80;99.90;;;;;;4361626;28;657455;-70
2023/04/29 01:39:41;;;;;;;38.27;15.77;;;6.90;99.90;;;;;;4364444;28;658304;-69
2023/04/29 01:42:40;;;;;;;33.03;13.07;;;6.90;99.90;;;;;;4360913;28;657951;-70
2023/04/29 01:45:27;;;;;;;35.90;13.87;;;7.00;99.90;;;;;;4343241;28;658005;-69
2023/04/29 01:48:14;;;;;;;33.27;13.77;;;7.00;99.90;;;;;;4384724;28;657636;-69
2023/04/29 01:51:01;;;;;;;37.97;15.27;;;7.00;99.90;;;;;;4366479;28;657856;-70
2023/04/29 01:53:49;;;;;;;37.90;14.23;;;7.10;99.90;;;;;;4386449;28;658781;-69
2023/04/29 01:56:36;;;;;;;30.30;13.00;;;7.10;99.90;;;;;;4362456;28;657558;-69
2023/04/29 01:59:25;;;;;;;26.23;11.73;;;7.10;99.90;;;;;;4388254;28;657961;-70
2023/04/29 02:02:14;;;;;;;33.57;13.37;;;7.10;99.90;;;;;;4369468;28;657499;-70
2023/04/29 02:05:01;;;;;;;24.93;10.47;;;7.10;99.90;;;;;;4368120;28;657273;-70
2023/04/29 02:07:48;;;;;;;25.73;9.47;;;7.20;99.90;;;;;;4391952;28;657896;-70
2023/04/29 02:10:35;;;;;;;23.10;10.10;;;7.20;99.90;;;;;;4363715;28;656297;-71
2023/04/29 02:13:22;;;;;;;33.70;14.63;;;7.30;99.90;;;;;;4390410;28;657116;-69
2023/04/29 02:16:13;;;;;;;32.23;13.90;;;7.30;99.90;;;;;;4379008;28;657977;-70
2023/04/29 02:19:00;;;;;;;29.77;12.77;;;7.30;99.90;;;;;;4359999;28;657587;-70
2023/04/29 02:21:48;;;;;;;21.47;11.03;;;7.30;99.90;;;;;;4386448;28;658225;-69
2023/04/29 02:24:35;;;;;;;23.23;11.23;;;7.30;99.90;;;;;;4383576;28;658246;-71
2023/04/29 02:27:22;;;;;;;35.23;16.63;;;7.40;99.90;;;;;;4384662;28;657548;-70
2023/04/29 02:30:10;;;;;;;43.13;20.07;;;7.40;99.90;;;;;;4326041;28;657833;-71
2023/04/29 02:32:59;;;;;;;34.10;15.87;;;7.40;99.90;;;;;;4321183;28;657528;-71
2023/04/29 02:35:46;;;;;;;38.80;18.47;;;7.40;99.90;;;;;;4301507;28;657400;-71
2023/04/29 02:38:33;;;;;;;41.77;21.70;;;7.40;99.90;;;;;;4292990;28;657401;-71
2023/04/29 02:41:20;;;;;;;39.33;21.03;;;7.50;99.90;;;;;;4366641;28;657660;-71
2023/04/29 02:44:07;;;;;;;37.67;20.60;;;7.50;99.90;;;;;;4376661;28;657999;-70
2023/04/29 02:46:56;;;;;;;34.00;17.73;;;7.40;99.90;;;;;;4381160;28;657472;-71
2023/04/29 02:49:45;;;;;;;32.10;16.70;;;7.40;99.90;;;;;;4391600;28;660693;-69
2023/04/29 02:52:32;;;;;;;28.73;13.40;;;7.50;99.90;;;;;;4366208;28;658018;-69
2023/04/29 02:55:20;;;;;;;61.10;19.97;;;7.50;99.90;;;;;;4384522;28;657207;-71
2023/04/29 02:58:07;;;;;;;28.23;12.23;;;7.50;99.90;;;;;;4389366;28;658368;-70
2023/04/29 03:00:55;;;;;;;37.83;14.27;;;7.50;99.90;;;;;;4382782;28;658213;-71
2023/04/29 03:03:42;;;;;;;35.30;13.90;;;7.60;99.90;;;;;;4392404;28;658311;-70
2023/04/29 03:06:31;;;;;;;29.30;14.30;;;7.60;99.90;;;;;;4391205;28;657297;-70
2023/04/29 03:09:20;;;;;;;41.50;16.58;;;7.60;99.90;;;;;;4364827;28;658517;-69
2023/04/29 03:12:07;;;;;;;32.93;14.93;;;7.60;99.90;;;;;;4361376;28;659112;-70
2023/04/29 03:14:54;;;;;;;38.47;18.98;;;7.60;1.00;;;;;;4388415;28;657518;-71
2023/04/29 03:17:41;;;;;;;28.53;14.40;;;7.60;1.00;;;;;;4363101;28;656710;-70
2023/04/29 03:20:29;;;;;;;45.37;20.40;;;7.70;1.00;;;;;;4380558;28;657375;-70
2023/04/29 03:23:18;;;;;;;32.00;15.77;;;7.70;1.00;;;;;;4367506;28;656306;-69
2023/04/29 03:26:05;;;;;;;22.43;12.27;;;7.70;1.00;;;;;;4378963;28;656370;-71
2023/04/29 03:28:52;;;;;;;24.10;12.10;;;7.80;1.00;;;;;;4393237;28;657120;-70
2023/04/29 03:31:40;;;;;;;20.77;10.03;;;7.80;1.00;;;;;;4384070;28;656537;-71
2023/04/29 03:34:28;;;;;;;30.60;12.77;;;7.80;1.00;;;;;;4389105;28;656817;-70
2023/04/29 03:37:15;;;;;;;21.10;11.50;;;7.90;1.00;;;;;;4357602;28;656795;-71
2023/04/29 03:40:05;;;;;;;25.00;10.73;;;7.90;1.00;;;;;;4387685;28;658210;-70
2023/04/29 03:42:52;;;;;;;22.23;10.50;;;7.90;1.00;;;;;;4366076;28;657307;-70
2023/04/29 03:45:39;;;;;;;23.97;10.60;;;8.00;1.00;;;;;;4393664;28;656073;-70
2023/04/29 03:48:26;;;;;;;18.67;9.60;;;8.00;1.00;;;;;;4369266;28;656916;-70
2023/04/29 03:51:13;;;;;;;20.07;9.27;;;8.10;1.00;;;;;;4383519;28;656177;-70
2023/04/29 03:54:01;;;;;;;17.87;9.37;;;8.10;1.00;;;;;;4366271;28;655783;-72
2023/04/29 03:56:49;;;;;;;19.47;9.57;;;8.10;1.00;;;;;;4392346;28;655720;-70
2023/04/29 03:59:36;;;;;;;21.30;9.23;;;8.20;99.90;;;;;;4369329;28;655348;-70
2023/04/29 04:02:24;;;;;;;17.27;9.40;;;8.20;99.90;;;;;;4382627;28;657381;-70
2023/04/29 04:05:11;;;;;;;19.10;9.97;;;8.20;1.00;;;;;;4369580;28;656925;-70
2023/04/29 04:07:59;;;;;;;15.90;8.90;;;8.30;1.00;;;;;;4394322;28;656409;-70
2023/04/29 04:10:46;;;;;;;17.20;8.82;;;8.40;99.90;;;;;;4367420;28;655357;-70
2023/04/29 04:13:35;;;;;;;21.00;9.47;;;8.40;99.90;;;;;;4383291;28;657616;-70
2023/04/29 04:16:22;;;;;;;17.93;9.00;;;8.50;99.90;;;;;;4358943;28;657880;-71
2023/04/29 04:19:09;;;;;;;16.20;9.70;;;8.50;99.90;;;;;;4391653;28;656211;-70
2023/04/29 04:21:57;;;;;;;17.03;8.83;;;8.60;99.90;;;;;;4366420;28;657272;-70
2023/04/29 04:24:44;;;;;;;17.17;9.03;;;8.60;99.90;;;;;;4389202;28;656950;-69
2023/04/29 04:27:31;;;;;;;18.80;9.20;;;8.60;99.90;;;;;;4368821;28;657167;-70
2023/04/29 04:30:20;;;;;;;16.70;9.07;;;8.70;99.90;;;;;;4391851;28;657542;-70
2023/04/29 04:33:07;;;;;;;17.63;9.10;;;8.70;99.90;;;;;;4364309;28;656850;-71
2023/04/29 04:35:54;;;;;;;15.77;8.60;;;8.80;99.90;;;;;;4389557;28;656674;-69
2023/04/29 04:38:41;;;;;;;14.95;8.18;;;8.80;99.90;;;;;;4369347;28;656609;-70
2023/04/29 04:41:30;;;;;;;18.20;8.90;;;8.90;99.90;;;;;;4389747;28;657233;-70
2023/04/29 04:44:17;;;;;;;21.37;9.60;;;9.00;99.90;;;;;;4374053;28;657027;-70
2023/04/29 04:47:06;;;;;;;22.20;9.20;;;9.00;99.90;;;;;;4391584;28;657131;-70
2023/04/29 04:49:53;;;;;;;15.63;8.47;;;9.00;99.90;;;;;;4361727;28;657102;-70
2023/04/29 04:52:41;;;;;;;21.20;8.33;;;9.00;99.90;;;;;;4360438;28;656702;-71
2023/04/29 04:55:28;;;;;;;15.00;8.50;;;9.10;1.00;;;;;;4388095;28;657217;-70
2023/04/29 04:58:15;;;;;;;16.97;7.53;;;9.10;1.00;;;;;;4374011;28;655762;-71
2023/04/29 05:01:03;;;;;;;16.63;8.67;;;9.10;1.00;;;;;;4386683;28;656307;-69
2023/04/29 05:03:52;;;;;;;15.77;7.80;;;9.10;1.00;;;;;;4378786;28;655071;-71
2023/04/29 05:06:39;;;;;;;18.77;8.50;;;9.20;1.00;;;;;;4379645;28;655784;-71
2023/04/29 05:09:26;;;;;;;17.63;9.10;;;9.20;1.00;;;;;;4366197;28;655413;-70
2023/04/29 05:12:14;;;;;;;16.93;9.17;;;9.30;1.00;;;;;;4384048;28;656508;-70
2023/04/29 05:15:01;;;;;;;18.97;9.33;;;9.30;1.00;;;;;;4370078;28;655602;-70
2023/04/29 05:17:48;;;;;;;16.40;8.60;;;9.40;1.00;;;;;;4391098;28;655954;-70
2023/04/29 05:20:37;;;;;;;14.70;8.30;;;9.40;1.00;;;;;;4363989;28;656280;-71
2023/04/29 05:23:24;;;;;;;14.63;8.53;;;9.50;1.00;;;;;;4383020;28;655944;-71
2023/04/29 05:26:11;;;;;;;16.00;8.70;;;9.50;1.00;;;;;;4366280;28;655463;-69
2023/04/29 05:28:58;;;;;;;16.90;8.43;;;9.60;1.00;;;;;;4395079;28;656420;-70
2023/04/29 05:31:46;;;;;;;17.87;8.50;;;9.60;1.00;;;;;;4365291;28;655747;-70
2023/04/29 05:34:33;;;;;;;19.87;9.20;;;9.60;1.00;;;;;;4385162;28;655455;-70
2023/04/29 05:37:22;;;;;;;17.20;9.57;;;9.70;1.00;;;;;;4373164;28;655685;-71
2023/04/29 05:40:10;;;;;;;17.43;8.83;;;9.70;1.00;;;;;;4382039;28;655311;-70
2023/04/29 05:42:57;;;;;;;21.57;10.40;;;9.80;1.00;;;;;;4371448;28;657395;-68
2023/04/29 05:45:46;;;;;;;18.47;9.17;;;9.80;1.00;;;;;;4380723;28;657753;-69
2023/04/29 05:48:34;;;;;;;20.63;9.37;;;9.80;1.00;;;;;;4375216;28;656217;-75
2023/04/29 05:51:21;;;;;;;16.43;8.67;;;9.90;1.00;;;;;;4365382;28;655490;-74
2023/04/29 05:54:09;;;;;;;16.17;7.67;;;9.90;1.00;;;;;;4391242;28;655299;-74
2023/04/29 05:56:57;;;;;;;18.87;8.87;;;9.90;1.00;;;;;;4373330;28;655793;-74
2023/04/29 05:59:44;;;;;;;19.77;8.90;;;10.00;1.00;;;;;;4383624;28;655129;-74
2023/04/29 06:02:31;;;;;;;12.70;7.57;;;10.10;1.00;;;;;;4372743;28;656439;-73
2023/04/29 06:05:19;;;;;;;15.60;8.30;;;10.10;1.00;;;;;;4396097;28;656700;-75
2023/04/29 06:08:06;;;;;;;13.87;8.57;;;10.20;1.00;;;;;;4376816;28;657108;-77
2023/04/29 06:10:54;;;;;;;18.75;10.27;;;10.30;1.00;;;;;;4392629;28;657863;-76
2023/04/29 06:13:42;;;;;;;13.40;7.97;;;10.20;1.00;;;;;;4362013;28;658626;-73
2023/04/29 06:16:29;;;;;;;18.03;8.67;;;10.30;1.00;;;;;;4394401;28;657951;-74
2023/04/29 06:19:16;;;;;;;15.90;9.23;;;10.30;1.00;;;;;;4372923;28;656983;-74
2023/04/29 06:22:03;;;;;;;15.83;8.93;;;10.40;1.00;;;;;;4388417;28;657472;-74
2023/04/29 06:24:51;;;;;;;17.27;8.73;;;10.50;1.00;;;;;;4362294;28;657012;-73
2023/04/29 06:27:40;;;;;;;15.97;8.40;;;10.40;1.00;;;;;;4377852;28;657389;-72
2023/04/29 06:30:27;;;;;;;16.80;9.48;;;10.50;1.00;;;;;;4239960;28;656016;-71
2023/04/29 06:33:14;;;;;;;18.80;9.00;;;10.50;1.00;;;;;;4226658;28;656314;-72
2023/04/29 06:36:01;;;;;;;16.33;9.70;;;10.50;1.00;;;;;;4308912;28;656408;-74
2023/04/29 06:38:49;;;;;;;17.30;9.20;;;10.50;1.00;;;;;;4389473;28;657020;-75
2023/04/29 06:41:36;;;;;;;20.20;9.33;;;10.60;1.00;;;;;;4359205;28;657569;-73
2023/04/29 06:44:25;;;;;;;15.13;8.48;;;10.60;1.00;;;;;;4393745;28;656746;-74
2023/04/29 06:47:12;;;;;;;16.23;8.87;;;10.70;1.00;;;;;;4364477;28;656482;-73
2023/04/29 06:49:59;;;;;;;21.80;10.90;;;10.60;1.00;;;;;;4383444;28;656821;-74
2023/04/29 06:52:48;;;;;;;21.10;9.30;;;10.60;1.00;;;;;;4367828;28;657542;-74
2023/04/29 06:55:35;;;;;;;15.60;9.17;;;10.70;1.00;;;;;;4379421;28;656810;-72
2023/04/29 06:58:22;;;;;;;16.57;8.47;;;10.70;1.00;;;;;;4385665;28;657190;-73
2023/04/29 07:01:12;;;;;;;15.57;8.10;;;10.60;1.00;;;;;;4383727;28;656917;-72
2023/04/29 07:03:59;;;;;;;14.97;8.90;;;10.60;1.00;;;;;;4379576;28;656778;-74
2023/04/29 07:06:47;;;;;;;17.50;9.40;;;10.60;1.00;;;;;;4366447;28;657219;-73
2023/04/29 07:09:34;;;;;;;15.47;8.33;;;10.60;1.00;;;;;;4386882;28;656091;-73
2023/04/29 07:12:21;;;;;;;15.90;8.82;;;10.60;1.00;;;;;;4365899;28;656566;-74
2023/04/29 07:15:09;;;;;;;14.53;7.90;;;10.60;1.00;;;;;;4376810;28;657155;-73
2023/04/29 07:17:59;;;;;;;14.80;8.70;;;10.70;1.00;;;;;;4359335;28;656740;-73
2023/04/29 07:20:46;;;;;;;13.10;7.93;;;10.70;1.00;;;;;;4362582;28;657409;-74
2023/04/29 07:23:34;;;;;;;14.00;7.87;;;10.70;1.00;;;;;;4388215;28;656774;-73
2023/04/29 07:26:21;;;;;;;20.80;8.50;;;10.70;1.00;;;;;;4366311;28;657118;-74
2023/04/29 07:29:08;;;;;;;17.20;8.00;;;10.80;1.00;;;;;;4383928;28;657201;-74
2023/04/29 07:31:56;;;;;;;16.03;8.50;;;10.70;1.00;;;;;;4367494;28;656403;-73
2023/04/29 07:34:44;;;;;;;23.57;8.73;;;10.70;1.00;;;;;;4383737;28;657281;-73
2023/04/29 07:37:31;;;;;;;15.40;8.00;;;10.70;1.00;;;;;;4362651;28;656580;-72
2023/04/29 07:40:19;;;;;;;13.63;7.97;;;10.70;1.00;;;;;;4374286;28;656256;-73
2023/04/29 07:43:07;;;;;;;15.63;8.20;;;10.70;1.00;;;;;;4363036;28;656545;-74
2023/04/29 07:45:55;;;;;;;18.07;8.73;;;10.70;1.00;;;;;;4384627;28;656121;-70
2023/04/29 07:48:42;;;;;;;14.43;8.53;;;10.70;1.00;;;;;;4387048;28;657572;-74
2023/04/29 07:51:31;;;;;;;14.33;8.70;;;10.70;1.00;;;;;;4377298;28;656457;-73
2023/04/29 07:54:19;;;;;;;16.03;8.93;;;10.70;1.00;;;;;;4363112;28;657085;-74
2023/04/29 07:57:06;;;;;;;16.90;8.30;;;10.60;1.00;;;;;;4363390;28;657259;-73
2023/04/29 07:59:53;;;;;;;14.63;9.40;;;10.70;1.00;;;;;;4383529;28;657855;-74
2023/04/29 08:02:41;;;;;;;20.53;10.57;;;10.70;1.00;;;;;;4366594;28;658153;-73
2023/04/29 08:05:29;;;;;;;28.70;13.73;;;10.80;1.00;;;;;;4386044;28;657854;-73
2023/04/29 08:08:17;;;;;;;23.70;14.03;;;10.80;1.00;;;;;;4365589;28;657777;-74
2023/04/29 08:11:06;;;;;;;27.47;12.67;;;10.90;1.00;;;;;;4372111;28;657884;-72
2023/04/29 08:13:53;;;;;;;18.13;10.20;;;11.00;1.00;;;;;;4375569;28;658419;-74
2023/04/29 08:16:40;;;;;;;22.30;10.10;;;11.00;1.00;;;;;;4369002;28;657636;-73
2023/04/29 08:19:28;;;;;;;15.33;8.83;;;11.10;1.00;;;;;;4391540;28;657909;-75
2023/04/29 08:22:15;;;;;;;19.57;10.60;;;11.10;1.00;;;;;;4379867;28;656747;-72
2023/04/29 08:28:07;;;;;;;15.43;8.70;;;11.10;1.00;;;;;;4342695;28;656808;-74
2023/04/29 08:30:54;;;;;;;17.67;10.23;;;11.20;1.00;;;;;;4390134;28;656778;-73
2023/04/29 08:33:41;;;;;;;16.85;10.73;;;11.20;1.00;;;;;;4360653;28;658296;-73
2023/04/29 08:36:28;;;;;;;16.17;9.87;;;11.30;1.00;;;;;;4392017;28;657665;-73
2023/04/29 08:39:16;;;;;;;17.53;10.20;;;11.40;1.00;;;;;;4376053;28;657549;-73
2023/04/29 08:42:09;;;;;;;19.03;9.83;;;11.50;1.00;;;;;;4393649;28;658919;-73
2023/04/29 08:44:57;;;;;;;15.47;9.40;;;11.60;1.00;;;;;;4356016;28;656692;-73
2023/04/29 08:47:44;;;;;;;19.07;10.67;;;11.70;1.00;;;;;;4387178;28;656411;-75
2023/04/29 08:50:32;;;;;;;15.03;8.83;;;11.80;1.00;;;;;;4372808;28;657779;-74
2023/04/29 08:53:19;;;;;;;16.80;9.33;;;11.80;1.00;;;;;;4384271;28;658390;-73
2023/04/29 08:56:09;;;;;;;13.27;8.77;;;11.80;1.00;;;;;;4353999;28;656663;-73
2023/04/29 08:58:59;;;;;;;14.63;9.50;;;11.80;1.00;;;;;;4372214;28;657880;-74
2023/04/29 09:01:49;;;;;;;14.63;9.38;;;11.90;1.00;;;;;;4378426;28;656316;-73
2023/04/29 09:04:45;;;;;;;13.70;8.87;;;12.10;1.00;;;;;;4371996;28;656770;-73
2023/04/29 09:07:32;;;;;;;21.80;10.93;;;12.20;1.00;;;;;;4339252;28;656374;-73
2023/04/29 09:10:19;;;;;;;21.77;12.00;;;12.40;1.00;;;;;;4382753;28;657595;-74
2023/04/29 09:13:06;;;;;;;21.57;11.97;;;12.50;1.00;;;;;;4365027;28;657405;-73
2023/04/29 09:15:55;;;;;;;22.67;10.40;;;12.60;1.00;;;;;;4380577;28;657987;-74
2023/04/29 09:18:43;;;;;;;19.25;10.20;;;12.70;1.00;;;;;;4369111;28;657404;-73
2023/04/29 09:21:31;;;;;;;15.53;8.80;;;12.80;1.00;;;;;;4364468;28;657708;-73
2023/04/29 09:24:18;;;;;;;25.25;13.90;;;12.90;1.00;;;;;;4381591;28;657275;-73
2023/04/29 09:27:05;;;;;;;17.43;9.93;;;13.00;1.00;;;;;;4363718;28;657620;-73
2023/04/29 09:30:00;;;;;;;17.23;9.30;;;13.10;1.00;;;;;;4391920;28;657441;-74
2023/04/29 09:35:42;;;;;;;17.20;9.00;;;13.20;1.00;;;;;;4976649;27;173322;-72
2023/04/29 09:38:29;;;;;;;12.60;7.03;;;13.60;1.00;;;;;;4461239;28;650312;-73
2023/04/29 09:41:18;;;;;;;11.83;7.23;;;13.90;1.00;;;;;;4443552;28;650790;-74
2023/04/29 09:44:06;;;;;;;11.20;5.80;;;14.40;1.00;;;;;;4443264;28;650428;-73
2023/04/29 09:46:57;;;;;;;17.30;9.40;;;14.60;1.00;;;;;;4467555;28;650967;-75
2023/04/29 09:49:44;;;;;;;14.43;6.60;;;15.00;99.90;;;;;;4433183;28;650766;-74
2023/04/29 09:52:40;;;;;;;11.73;6.37;;;15.30;99.90;;;;;;4439373;28;653142;-74
2023/04/29 09:55:28;;;;;;;14.47;6.70;;;15.60;99.90;;;;;;4442034;28;652506;-73
2023/04/29 09:58:22;;;;;;;10.77;5.23;;;15.60;99.90;;;;;;4441205;28;652264;-73
2023/04/29 10:01:12;;;;;;;10.97;5.67;;;15.50;99.90;;;;;;4432606;28;652931;-74
2023/04/29 10:03:59;;;;;;;10.77;5.83;;;15.50;99.90;;;;;;4456728;28;653610;-74
2023/04/29 10:06:48;;;;;;;13.17;6.43;;;15.30;99.90;;;;;;4436667;28;655160;-77
2023/04/29 10:09:37;;;;;;;13.23;7.67;;;15.50;99.90;;;;;;4439203;28;653230;-73
2023/04/29 10:12:25;;;;;;;9.70;4.73;;;15.70;99.90;;;;;;4453775;28;653873;-76
2023/04/29 10:15:17;;;;;;;9.60;5.13;;;16.00;99.90;;;;;;4432446;28;653562;-76
2023/04/29 10:18:11;;;;;;;11.67;5.53;;;16.20;99.90;;;;;;4435580;28;653157;-76
2023/04/29 10:20:58;;;;;;;9.63;5.00;;;16.40;99.90;;;;;;4439492;28;653436;-73
2023/04/29 10:23:45;;;;;;;10.37;5.13;;;16.70;99.90;;;;;;4426865;28;652291;-75
2023/04/29 10:26:35;;;;;;;9.83;5.67;;;17.00;99.90;;;;;;4445506;28;654531;-76
2023/04/29 10:29:23;;;;;;;14.03;5.97;;;17.10;99.90;;;;;;4432404;28;653719;-74
2023/04/29 10:32:11;;;;;;;10.00;5.17;;;17.20;99.90;;;;;;4431131;28;653476;-74
2023/04/29 10:34:58;;;;;;;9.57;5.67;;;17.50;99.90;;;;;;4457488;28;654282;-75
2023/04/29 10:37:46;;;;;;;12.10;5.60;;;17.40;99.90;;;;;;4433434;28;653017;-75
2023/04/29 10:40:36;;;;;;;10.07;6.13;;;17.30;99.90;;;;;;4456889;28;653501;-77
2023/04/29 10:43:26;;;;;;;9.93;5.90;;;17.00;99.90;;;;;;4429354;28;653791;-75
2023/04/29 10:46:20;;;;;;;10.10;6.17;;;16.70;99.90;;;;;;4426481;28;652972;-76
2023/04/29 10:49:08;;;;;;;13.07;5.73;;;16.60;99.90;;;;;;4419820;28;654613;-76
2023/04/29 10:52:03;;;;;;;15.10;6.07;;;16.30;99.90;;;;;;4430015;28;653005;-74
2023/04/29 10:55:02;;;;;;;10.30;6.17;;;16.10;99.90;;;;;;4407925;28;653559;-74
2023/04/29 10:57:49;;;;;;;11.20;6.33;;;15.50;99.90;;;;;;4430195;28;653362;-76
2023/04/29 11:00:38;;;;;;;11.07;7.07;;;15.60;99.90;;;;;;4427098;28;653428;-75
2023/04/29 11:03:47;;;;;;;12.67;6.90;;;15.80;99.90;;;;;;4432498;28;653609;-74
2023/04/29 11:06:46;;;;;;;14.20;7.23;;;16.10;99.90;;;;;;4413806;28;653746;-76
2023/04/29 11:09:37;;;;;;;12.93;6.83;;;16.40;99.90;;;;;;4433413;28;654738;-76
2023/04/29 11:12:24;;;;;;;12.07;7.10;;;16.50;99.90;;;;;;4431199;28;653056;-75
2023/04/29 11:15:12;;;;;;;13.40;7.90;;;16.50;99.90;;;;;;4429953;28;653343;-75
2023/04/29 11:18:00;;;;;;;13.27;7.10;;;16.40;99.90;;;;;;4442564;28;653694;-76
2023/04/29 11:21:12;;;;;;;12.60;7.33;;;16.40;99.90;;;;;;4409407;28;654492;-76
2023/04/29 11:24:01;;;;;;;16.60;6.83;;;16.40;99.90;;;;;;4443331;28;653215;-74
2023/04/29 11:26:48;;;;;;;10.00;6.53;;;16.00;99.90;;;;;;4462386;28;654376;-76
2023/04/29 11:29:35;;;;;;;13.47;6.80;;;15.70;99.90;;;;;;4436629;28;653428;-74
2023/04/29 11:32:22;;;;;;;13.57;6.73;;;15.60;99.90;;;;;;4454569;28;653642;-76
2023/04/29 11:35:12;;;;;;;11.27;6.20;;;15.70;99.90;;;;;;4439175;28;653627;-74
2023/04/29 11:37:59;;;;;;;12.33;7.10;;;15.40;99.90;;;;;;4439512;28;653263;-75
2023/04/29 11:40:49;;;;;;;10.80;6.90;;;15.30;99.90;;;;;;4424694;28;654380;-75
2023/04/29 11:43:38;;;;;;;17.60;7.37;;;15.00;99.90;;;;;;4434495;28;653989;-75
2023/04/29 11:46:27;;;;;;;15.30;7.37;;;14.70;99.90;;;;;;4419762;28;653736;-74
2023/04/29 11:49:14;;;;;;;12.33;6.90;;;14.80;99.90;;;;;;4438201;28;653041;-75
2023/04/29 11:52:03;;;;;;;13.63;6.90;;;14.90;99.90;;;;;;4437753;28;653959;-76
2023/04/29 11:54:51;;;;;;;11.70;6.93;;;14.60;99.90;;;;;;4420854;28;653747;-75
2023/04/29 11:57:39;;;;;;;12.23;7.20;;;14.70;99.90;;;;;;4450456;28;654390;-76
2023/04/29 12:00:26;;;;;;;11.83;6.77;;;14.60;99.90;;;;;;4417754;28;653716;-76
2023/04/29 12:03:14;;;;;;;14.77;7.73;;;14.50;99.90;;;;;;4434402;28;653640;-75
2023/04/29 12:06:01;;;;;;;17.47;6.90;;;14.60;99.90;;;;;;4424640;28;653165;-75
2023/04/29 12:08:50;;;;;;;14.40;7.03;;;14.70;99.90;;;;;;4431953;28;653646;-76
2023/04/29 12:11:37;;;;;;;15.57;7.50;;;14.70;99.90;;;;;;4424933;28;654313;-75
2023/04/29 12:14:25;;;;;;;12.77;6.83;;;14.90;99.90;;;;;;4442396;28;653437;-76
2023/04/29 12:17:12;;;;;;;14.43;7.17;;;14.80;99.90;;;;;;4429702;28;654604;-76
2023/04/29 12:19:59;;;;;;;13.07;7.27;;;14.70;99.90;;;;;;4463170;28;653501;-76
2023/04/29 12:22:47;;;;;;;16.30;7.90;;;14.70;99.90;;;;;;4427214;28;654167;-76
2023/04/29 12:25:36;;;;;;;14.97;7.90;;;14.60;99.90;;;;;;4437815;28;655105;-76
2023/04/29 12:28:23;;;;;;;16.23;7.60;;;14.70;99.90;;;;;;4423567;28;655784;-76
2023/04/29 12:31:11;;;;;;;12.83;7.53;;;14.70;99.90;;;;;;4422734;28;655048;-74
2023/04/29 12:33:58;;;;;;;17.97;7.90;;;15.00;99.90;;;;;;4368967;28;655158;-74
2023/04/29 12:36:45;;;;;;;17.63;8.17;;;15.00;99.90;;;;;;4256536;28;654421;-73
2023/04/29 12:39:33;;;;;;;14.87;7.53;;;15.00;99.90;;;;;;4344828;28;654139;-76
2023/04/29 12:42:22;;;;;;;15.40;8.40;;;14.90;99.90;;;;;;4424506;28;654529;-74
2023/04/29 12:45:10;;;;;;;15.90;8.13;;;14.90;99.90;;;;;;4443806;28;654882;-75
2023/04/29 12:47:57;;;;;;;13.20;7.60;;;14.70;99.90;;;;;;4434527;28;655599;-74
2023/04/29 12:50:44;;;;;;;15.90;7.37;;;14.70;99.90;;;;;;4440976;28;654788;-74
2023/04/29 12:53:32;;;;;;;16.13;8.10;;;14.70;99.90;;;;;;4433247;28;655095;-74
2023/04/29 12:56:19;;;;;;;15.73;8.23;;;14.60;99.90;;;;;;4455389;28;654827;-75
2023/04/29 12:59:08;;;;;;;16.37;8.70;;;14.60;99.90;;;;;;4411121;28;654819;-75
2023/04/29 13:01:56;;;;;;;15.93;8.17;;;14.50;99.90;;;;;;4424788;28;654694;-75
2023/04/29 13:04:43;;;;;;;18.73;8.87;;;14.60;99.90;;;;;;4432502;28;655123;-74
2023/04/29 13:07:30;;;;;;;18.10;8.73;;;14.50;99.90;;;;;;4447095;28;654680;-73
2023/04/29 13:10:17;;;;;;;25.60;9.00;;;14.60;99.90;;;;;;4440065;28;654573;-74
2023/04/29 13:13:05;;;;;;;16.67;9.57;;;14.70;99.90;;;;;;4431045;28;654261;-72
2023/04/29 13:15:53;;;;;;;19.27;8.80;;;14.60;99.90;;;;;;4414366;28;655816;-76
2023/04/29 13:18:41;;;;;;;18.23;10.40;;;14.60;99.90;;;;;;4413009;28;654502;-75
2023/04/29 13:21:29;;;;;;;17.90;9.80;;;14.20;99.90;;;;;;4434156;28;656433;-71
2023/04/29 13:24:17;;;;;;;17.77;9.27;;;14.60;99.90;;;;;;4409677;28;654837;-73
2023/04/29 13:27:05;;;;;;;16.70;9.37;;;15.10;99.90;;;;;;4434284;28;654830;-73
2023/04/29 13:29:52;;;;;;;17.73;8.93;;;15.40;99.90;;;;;;4435389;28;655154;-76
2023/04/29 13:32:41;;;;;;;16.80;8.70;;;15.70;99.90;;;;;;4430263;28;654941;-75
2023/04/29 13:35:28;;;;;;;16.43;9.00;;;15.80;99.90;;;;;;4427202;28;654721;-76
2023/04/29 13:38:16;;;;;;;17.57;9.00;;;16.30;99.90;;;;;;4408426;28;654557;-74
2023/04/29 13:41:03;;;;;;;21.30;11.33;;;16.30;99.90;;;;;;4428654;28;655293;-74
2023/04/29 13:43:51;;;;;;;19.30;9.83;;;16.30;99.90;;;;;;4408016;28;655578;-75
2023/04/29 13:46:38;;;;;;;14.47;8.80;;;16.90;99.90;;;;;;4429679;28;655164;-75
2023/04/29 13:49:27;;;;;;;19.90;8.27;;;16.80;99.90;;;;;;4414999;28;654609;-74
2023/04/29 13:52:14;;;;;;;15.33;8.83;;;16.70;99.90;;;;;;4439826;28;654531;-76
2023/04/29 13:55:01;;;;;;;12.20;7.10;;;17.10;99.90;;;;;;4413033;28;654697;-75
2023/04/29 13:57:49;;;;;;;14.40;7.73;;;17.50;99.90;;;;;;4435495;28;654779;-75
2023/04/29 14:00:37;;;;;;;14.13;7.27;;;17.50;99.90;;;;;;4423957;28;654454;-75
2023/04/29 14:03:25;;;;;;;12.30;6.70;;;17.60;99.90;;;;;;4424874;28;654472;-73
2023/04/29 14:06:14;;;;;;;9.43;4.80;;;17.90;99.90;;;;;;4432739;28;654720;-75
2023/04/29 14:09:02;;;;;;;4.00;2.70;;;17.50;99.90;;;;;;4418567;28;653696;-74
2023/04/29 14:11:49;;;;;;;4.33;2.40;;;17.30;99.90;;;;;;4433054;28;653625;-75
2023/04/29 14:14:37;;;;;;;6.20;3.37;;;17.20;99.90;;;;;;4416826;28;653513;-75
2023/04/29 14:17:24;;;;;;;4.87;2.90;;;17.00;99.90;;;;;;4442281;28;655959;-73
2023/04/29 14:20:12;;;;;;;4.33;3.13;;;16.70;99.90;;;;;;4423879;28;655117;-72
2023/04/29 14:23:01;;;;;;;6.50;3.43;;;16.40;99.90;;;;;;4442959;28;654981;-74
2023/04/29 14:25:48;;;;;;;6.43;2.83;;;16.40;99.90;;;;;;4423447;28;655174;-73